logo
Search for airport 
image banner adimage banner adimage banner ad
image banner ad

FABALL - Ballito Bay -Dophin Coast-

Located in , South Africa

ICAO - , IATA -

Data provided by Airmate  

General information

Coordinates: S29°29'20" E31°10'44"
Elevation is 200 feet MSL.
 
View others Airports in Kwazulu-Natal

Operational data

Special qualification required
Current time UTC:
Current local time:
Weather at : FALE - King Shaka International ( 15 km )
TAF: TAF FALE 171600Z 1718/1824 30006KT CAVOK TX26/1812Z TN11/1804Z BECMG 1809/1811 18010KT BECMG 1817/1819 27005KT SCT035
View NOTAMs / SUP AIP / TFR affecting this airport [VIEW]
Communications frequencies: [VIEW]

Runways:

RWY identifierQFULength (ft)Width (ft)SurfaceLDA (ft)
0880°177266GRASS
26260°177266GRASS

Airport contact information

Address: South Africa

Satellite view of FABALL